Airfield :
LOGIN :

Register | Disclaimer

   EN    FR    IT 

 










Legend :    VFR   Marginal VFR   IFR   Intensive IFR   Very Intensive IFR
Visi :
Ceiling :
>= 8 km
>= 3000ft
5 to 8 km
1000 to 3000 ft
1500m to 5 km
500 to 1000 ft
800 to 1500m
200 to 500 ft
< 800m
< 200 ft
Symbols :   Thunderstorms  Fog  Heavy snow  Heavy precipitations  Wind > 20 kt
SIGMETs :     Misc.  Thunderstorms  Icing  Turbulence  Mountain Waves  Volcanic Ashes






- Airport Elevation : 74 ft
- IATA code : EIN


EHEH - Eindhoven

CURRENT METAR :
  • 012304Z AUTO 21002KT 9999 NCD 12/10 Q1021 BLU

EXPIRED METARs :
  • 011625Z AUTO 27006KT 220V290 9999 SCT058 BKN064 OVC071 19/11 Q1019 BLU NOSIG
  • 012155Z AUTO 19003KT 9999 NCD 14/11 Q1021 BLU
  • 012125Z AUTO 19003KT 9999 NCD 13/11 Q1021 BLU
  • 012103Z AUTO 20002KT 9999 NCD 14/12 Q1021 BLU
  • 012055Z AUTO 22002KT 9999 NCD 14/12 Q1021 BLU NOSIG
  • 012025Z AUTO 22001KT 9999 NCD 15/12 Q1021 BLU NOSIG

TAF TAF EHEH
Valid from the 01 at 18:00 until the 03 at 00:00 UTC


011746Z 0118/0224 27004KT CAVOK
BECMG 0218/0220 VRB02KT



MET'MAP, your aeronautical weather chart ! - Copyright ORBIFLY December 2007 - Disclaimer

ORBIFLY MET'MAP TEAM :

Programming & Development : Alexandra Zaïnal
Original concept : Baudouin d'Aumeries
Technical & hardware support : Manuel Goepfert
Assistance : Marc-Olivier Méhu




SOURCES & CREDITS :

   NOAA